Latest Weather Observations for Nerriga

IDN60801

Issued at 1:03 pm EDT Saturday 13 February 2016 (issued every 30 minutes, with the page automatically refreshed every 10 minutes)

About weather observations | Map of weather stations | Latest weather observations for NSW | Other Formats
Station Details ID: 069128 Name: NERRIGA AWS Lat: -35.11 Lon: 150.08 Height: 622.0 m
Data from the previous 72 hours. | See also: Recent months at Nerriga
Date/Time
EDT
Temp
°C
App
Temp
°C
Dew
Point
Rel
Hum
%
Delta-T
°C
Wind Press
QNH
hPa
Press
MSL
hPa
Rain
since 9 am
mm
Dir
 
Spd
km/h
Gust
km/h
Spd
kts
Gust
kts
13/01:00pm 29.0 27.3 13.6 38 9.4 WNW 15 28 8 15 1014.1 1011.5 0.0
13/12:30pm 28.8 28.7 16.0 45 8.1 NW 11 19 6 10 1014.5 1011.9 0.0
13/12:00pm 27.3 26.3 15.7 49 7.3 NNW 15 20 8 11 1014.9 1012.4 0.0
13/11:30am 27.0 27.1 17.5 56 6.1 NW 13 17 7 9 1015.4 1012.8 0.0
13/11:00am 25.4 26.0 16.8 59 5.5 NW 9 15 5 8 1015.6 1013.0 0.0
13/10:30am 23.8 25.0 17.3 67 4.1 NNE 7 11 4 6 1015.8 1013.2 0.0
13/10:00am 22.1 24.2 18.1 78 2.6 NNE 4 7 2 4 1015.9 1013.3 0.0
13/09:30am 20.6 22.1 17.6 83 1.9 NNE 6 7 3 4 1016.1 1013.5 0.0
13/09:00am 19.2 20.8 16.8 86 1.5 NNE 4 6 2 3 1016.2 1013.7 0.0
13/08:30am 18.0 19.1 16.5 91 0.9 NNE 6 9 3 5 1016.2 1013.7 0.0
13/08:00am 17.2 19.4 16.6 96 0.4 CALM 0 0 0 0 1016.1 1013.5 0.0
13/07:30am 15.8 17.6 15.6 99 0.1 CALM 0 0 0 0 1016.0 1013.4 0.0
13/07:00am 14.1 15.2 13.6 97 0.3 CALM 0 0 0 0 1015.9 1013.3 0.0
13/06:30am 14.1 15.2 13.5 96 0.3 CALM 0 0 0 0 1015.7 1013.1 0.0
13/06:00am 14.8 16.1 14.2 96 0.3 CALM 0 0 0 0 1015.5 1012.9 0.0
13/05:30am 15.2 16.5 14.2 94 0.6 CALM 0 0 0 0 1015.4 1012.8 0.0
13/05:00am 16.7 18.3 15.9 95 0.5 NNE 2 4 1 2 1015.4 1012.8 0.0
13/04:30am 16.7 17.8 15.6 93 0.7 NNE 4 6 2 3 1015.3 1012.7 0.0
13/04:00am 17.4 18.7 16.1 92 0.8 NNE 4 6 2 3 1015.5 1012.9 0.0
13/03:30am 17.5 18.2 16.0 91 0.9 NNE 7 9 4 5 1015.7 1013.1 0.0
13/03:00am 17.9 18.2 16.1 89 1.1 NNE 9 13 5 7 1015.8 1013.2 0.0
13/02:30am 18.4 19.3 16.6 89 1.1 N 7 15 4 8 1016.2 1013.7 0.0
13/02:00am 18.3 19.2 16.6 90 1.0 N 7 19 4 10 1016.3 1013.8 0.0
13/01:30am 18.3 18.6 17.0 92 0.8 NNE 11 19 6 10 1016.4 1013.9 0.0
13/01:00am 18.2 18.5 17.0 93 0.7 N 11 20 6 11 1016.7 1014.2 0.0
13/12:30am 17.7 18.7 16.9 95 0.5 NE 7 13 4 7 1017.0 1014.4 0.0
13/12:00am 17.9 19.6 17.1 95 0.5 NE 4 6 2 3 1016.8 1014.3 0.0
 
Date/Time
EDT
Temp
°C
App
Temp
°C
Dew
Point
Rel
Hum
%
Delta-T
°C
Wind Press
QNH
hPa
Press
MSL
hPa
Rain
since 9 am
mm
Dir
 
Spd
km/h
Gust
km/h
Spd
kts
Gust
kts
12/11:30pm 18.1 19.4 17.0 93 0.7 NE 6 9 3 5 1016.8 1014.3 0.0
12/11:00pm 18.4 19.2 17.4 94 0.6 ENE 9 13 5 7 1017.2 1014.6 0.0
12/10:30pm 18.3 19.4 17.1 93 0.7 ENE 7 9 4 5 1017.4 1014.8 0.0
12/10:00pm 18.6 19.8 17.3 92 0.8 ENE 7 11 4 6 1017.4 1014.8 0.0
12/09:30pm 19.0 20.5 17.5 91 0.9 ENE 6 7 3 4 1017.4 1014.8 0.0
12/09:00pm 19.6 21.0 17.9 90 1.1 ENE 7 9 4 5 1017.2 1014.6 0.0
12/08:30pm 20.1 21.3 18.2 89 1.2 ENE 9 17 5 9 1017.0 1014.4 0.0
12/08:00pm 20.7 20.8 18.3 86 1.5 E 15 20 8 11 1016.5 1014.0 0.0
12/07:30pm 21.7 21.9 18.5 82 2.1 E 15 20 8 11 1016.4 1013.9 0.0
12/07:00pm 22.1 22.7 18.7 81 2.2 ENE 13 19 7 10 1016.3 1013.8 0.0
12/06:30pm 22.6 22.7 18.4 77 2.7 ENE 15 19 8 10 1015.8 1013.2 0.0
12/06:00pm 23.1 22.3 18.0 73 3.3 ENE 19 24 10 13 1015.7 1013.1 0.0
12/05:30pm 23.9 23.6 17.4 67 4.1 ENE 15 20 8 11 1015.9 1013.3 0.0
12/05:00pm 24.4 23.8 17.6 66 4.3 E 17 24 9 13 1015.8 1013.2 0.0
12/04:30pm 25.6 25.6 17.3 60 5.3 ENE 13 20 7 11 1015.6 1013.0 0.0
12/04:00pm 25.0 23.4 15.9 57 5.7 ENE 19 24 10 13 1015.8 1013.2 0.0
12/03:30pm 25.8 24.7 17.2 59 5.5 E 19 24 10 13 1016.1 1013.5 0.0
12/03:00pm 26.4 26.0 16.1 53 6.5 NE 13 20 7 11 1016.4 1013.9 0.0
12/02:30pm 25.8 25.5 16.4 56 5.9 ENE 13 20 7 11 1016.7 1014.2 0.0
12/02:00pm 25.6 25.6 16.2 56 5.9 ENE 11 22 6 12 1017.1 1014.5 0.0
12/01:30pm 24.2 24.2 15.1 56 5.6 NE 9 15 5 8 1017.4 1014.8 0.0
12/01:00pm 25.1 25.4 16.0 57 5.7 ENE 9 19 5 10 1017.6 1015.1 0.0
12/12:30pm 24.5 24.7 15.7 58 5.5 NNE 9 17 5 9 1017.9 1015.4 0.0
12/12:00pm 24.7 25.1 17.2 63 4.8 NNE 11 20 6 11 1018.3 1015.8 0.0
12/11:30am 23.0 23.0 15.3 62 4.7 NE 9 20 5 11 1018.7 1016.1 0.0
12/11:00am 22.4 23.7 17.1 72 3.3 N 6 15 3 8 1018.9 1016.3 0.0
12/10:30am 20.9 21.7 15.9 73 3.1 N 6 9 3 5 1019.1 1016.6 0.0
12/10:00am 20.5 20.7 15.7 74 2.9 N 9 13 5 7 1019.1 1016.6 0.0
12/09:30am 20.7 21.6 17.5 82 2.0 N 9 15 5 8 1019.2 1016.7 0.0
12/09:00am 19.7 20.6 16.5 82 2.0 ENE 7 13 4 7 1019.2 1016.7 0.0
12/08:30am 19.8 21.2 16.4 81 2.1 ENE 4 7 2 4 1019.2 1016.7 0.0
12/08:00am 18.6 20.0 16.4 87 1.4 ENE 4 4 2 2 1019.0 1016.4 0.0
12/07:30am 16.4 17.6 15.9 97 0.3 ENE 4 4 2 2 1018.7 1016.1 0.0
12/07:00am 15.3 15.7 14.7 96 0.4 ENE 6 6 3 3 1018.2 1015.7 0.0
12/06:30am 15.6 16.4 14.8 95 0.5 ENE 4 6 2 3 1018.0 1015.5 0.0
12/06:00am 16.2 18.0 15.6 96 0.4 CALM 0 0 0 0 1017.8 1015.3 0.0
12/05:30am 16.0 16.9 15.2 95 0.5 ENE 4 6 2 3 1017.4 1014.8 0.0
12/05:00am 16.1 17.8 15.3 95 0.5 CALM 0 2 0 1 1017.3 1014.7 0.0
12/04:30am 16.1 17.4 15.1 94 0.6 ENE 2 4 1 2 1017.2 1014.6 0.0
12/04:00am 16.3 18.0 15.3 94 0.6 CALM 0 0 0 0 1017.3 1014.7 0.0
12/03:30am 16.5 15.9 15.7 95 0.5 ENE 13 15 7 8 1017.2 1014.6 0.0
12/03:00am 16.9 17.7 15.8 93 0.7 E 6 11 3 6 1017.3 1014.7 0.0
12/02:30am 17.2 19.3 16.2 94 0.6 CALM 0 0 0 0 1017.8 1015.3 0.0
12/02:00am 17.0 16.9 16.0 94 0.6 E 11 13 6 7 1017.8 1015.3 0.0
12/01:30am 17.3 16.8 16.0 92 0.8 ENE 13 15 7 8 1017.8 1015.3 0.0
12/01:00am 17.9 18.3 16.2 90 1.0 ENE 9 13 5 7 1018.0 1015.5 0.0
12/12:30am 18.0 18.1 16.5 91 0.9 NE 11 17 6 9 1018.3 1015.8 0.0
12/12:00am 17.9 18.6 16.2 90 1.0 ENE 7 9 4 5 1018.5 1016.0 0.0
 
Date/Time
EDT
Temp
°C
App
Temp
°C
Dew
Point
Rel
Hum
%
Delta-T
°C
Wind Press
QNH
hPa
Press
MSL
hPa
Rain
since 9 am
mm
Dir
 
Spd
km/h
Gust
km/h
Spd
kts
Gust
kts
11/11:30pm 18.4 18.1 16.4 88 1.2 E 13 17 7 9 1018.5 1016.0 0.0
11/11:00pm 18.5 20.2 16.3 87 1.3 ESE 2 4 1 2 1019.5 1017.0 0.0
11/10:30pm 18.5 18.9 16.3 87 1.4 E 9 15 5 8 1019.0 1016.4 0.0
11/10:00pm 18.5 18.9 16.3 87 1.3 E 9 15 5 8 1018.5 1016.0 0.0
11/09:30pm 18.6 19.7 16.6 88 1.2 E 6 7 3 4 1018.4 1015.9 0.0
11/09:00pm 18.7 20.1 16.5 87 1.4 E 4 7 2 4 1018.5 1016.0 0.0
11/08:30pm 18.7 18.0 16.3 86 1.5 E 15 24 8 13 1017.5 1014.9 0.0
11/08:00pm 19.0 17.4 16.4 85 1.6 ENE 20 30 11 16 1017.2 1014.6 0.0
11/07:30pm 19.2 18.0 16.2 83 1.8 ENE 17 26 9 14 1017.0 1014.4 0.0
11/07:00pm 19.3 18.2 16.3 83 1.8 ENE 17 24 9 13 1016.6 1014.1 0.0
11/06:30pm 19.6 19.0 16.6 83 1.9 ENE 15 22 8 12 1016.8 1014.3 0.0
11/06:00pm 20.4 18.8 16.6 79 2.4 E 20 32 11 17 1016.0 1013.4 0.0
11/05:30pm 22.0 20.1 16.7 72 3.3 E 22 32 12 17 1015.8 1013.2 0.0
11/05:00pm 22.7 21.4 17.2 71 3.5 E 20 28 11 15 1016.2 1013.7 0.0
11/04:30pm 23.2 21.0 17.0 68 3.9 E 24 33 13 18 1015.7 1013.1 0.0
11/04:00pm 24.2 22.6 18.4 70 3.8 E 24 35 13 19 1015.3 1012.7 0.0
11/03:30pm 24.6 23.3 17.3 64 4.7 E 20 28 11 15 1015.7 1013.1 0.0
11/03:00pm 25.0 23.7 16.7 60 5.2 ENE 19 32 10 17 1016.0 1013.4 0.0
11/02:30pm 25.4 24.6 18.1 64 4.7 E 19 26 10 14 1016.4 1013.9 0.0
11/02:00pm 24.9 23.7 17.1 62 5.0 E 19 32 10 17 1016.6 1014.1 0.0
11/01:30pm 24.8 24.0 16.2 58 5.4 ENE 15 19 8 10 1016.7 1014.2 0.0
11/01:00pm 24.4 23.1 15.9 59 5.3 E 17 24 9 13 1017.0 1014.4 0.0
11/12:30pm 24.4 23.4 16.6 61 4.9 E 17 22 9 12 1017.0 1014.4 0.0
11/12:00pm 24.2 23.4 16.2 61 5.0 ENE 15 22 8 12 1017.3 1014.7 0.0
11/11:30am 23.8 23.7 16.1 62 4.8 E 11 19 6 10 1017.5 1014.9 0.0
11/11:00am 23.8 25.6 18.2 71 3.6 E 6 13 3 7 1017.6 1015.1 0.0
11/10:30am 22.6 23.6 16.4 68 3.9 E 6 13 3 7 1017.6 1015.1 0.0
11/10:00am 21.8 22.6 16.3 71 3.4 ESE 7 13 4 7 1017.5 1014.9 0.0
11/09:30am 21.2 22.9 17.2 78 2.5 ESE 4 7 2 4 1017.7 1015.2 0.0
11/09:00am 20.2 21.7 17.6 85 1.6 ESE 6 7 3 4 1017.8 1015.3 0.0
11/08:30am 19.6 21.8 17.4 87 1.4 ESE 2 4 1 2 1017.7 1015.2 0.0
11/08:00am 18.4 20.7 16.7 90 1.0 CALM 0 0 0 0 1017.4 1014.8 0.0
11/07:30am 17.3 19.7 17.0 98 0.2 CALM 0 0 0 0 1017.0 1014.4 0.0
11/07:00am 16.5 18.6 16.2 98 0.2 CALM 0 0 0 0 1016.6 1014.1 0.0
11/06:30am 16.3 18.3 16.0 98 0.2 CALM 0 2 0 1 1016.4 1013.9 0.0
11/06:00am 16.4 17.7 16.2 99 0.1 ESE 4 6 2 3 1016.2 1013.7 0.0
11/05:30am 16.0 17.2 15.8 99 0.1 ESE 4 6 2 3 1015.9 1013.3 0.0
11/05:00am 15.8 17.2 15.5 98 0.2 ESE 2 4 1 2 1015.5 1012.9 0.0
11/04:30am 15.5 16.4 15.2 98 0.2 ESE 4 6 2 3 1015.3 1012.7 0.0
11/04:00am 15.3 16.2 15.0 98 0.2 ESE 4 4 2 2 1015.3 1012.7 0.0
11/03:30am 15.4 17.0 14.8 96 0.4 CALM 0 0 0 0 1015.4 1012.8 0.0
11/03:00am 16.3 17.8 15.8 97 0.3 ESE 2 2 1 1 1015.6 1013.0 0.0
11/02:30am 16.4 17.6 15.9 97 0.3 ESE 4 6 2 3 1015.8 1013.2 0.0
11/02:00am 16.8 17.8 16.3 97 0.3 ESE 6 7 3 4 1015.9 1013.3 0.0
11/01:30am 16.7 17.6 16.1 96 0.4 ESE 6 7 3 4 1016.0 1013.4 0.0
11/01:00am 17.4 18.3 16.6 95 0.5 ESE 7 9 4 5 1016.1 1013.5 0.0
11/12:30am 17.9 19.1 16.9 94 0.6 ESE 6 9 3 5 1016.2 1013.7 0.0
11/12:00am 18.1 19.7 16.8 92 0.8 ESE 4 7 2 4 1016.2 1013.7 0.0
 
Date/Time
EDT
Temp
°C
App
Temp
°C
Dew
Point
Rel
Hum
%
Delta-T
°C
Wind Press
QNH
hPa
Press
MSL
hPa
Rain
since 9 am
mm
Dir
 
Spd
km/h
Gust
km/h
Spd
kts
Gust
kts
10/11:30pm 18.6 18.6 17.3 92 0.8 ESE 13 20 7 11 1016.1 1013.5 0.0
10/11:00pm 19.0 18.6 17.1 89 1.2 SE 15 19 8 10 1016.2 1013.7 0.0
10/10:30pm 19.4 20.3 16.1 81 2.0 ESE 6 9 3 5 1016.1 1013.5 0.0
10/10:00pm 19.4 20.0 15.9 80 2.1 ESE 7 9 4 5 1016.1 1013.5 0.0
10/09:30pm 20.0 20.4 15.2 74 2.9 E 7 11 4 6 1015.8 1013.2 0.0
10/09:00pm 20.9 20.8 15.9 73 3.1 E 11 13 6 7 1015.3 1012.7 0.0
10/08:30pm 22.5 23.0 15.1 63 4.5 SE 6 7 3 4 1015.3 1012.7 0.0
10/08:00pm 23.3 22.6 15.4 61 4.9 SE 13 19 7 10 1015.0 1012.5 0.0
10/07:30pm 24.0 23.5 15.8 60 5.1 ENE 13 17 7 9 1014.4 1011.8 0.0
10/07:00pm 24.5 23.5 16.7 61 4.9 E 17 24 9 13 1013.8 1011.2 0.0
10/06:30pm 25.5 23.7 16.1 56 5.9 E 20 30 11 16 1013.2 1010.6 0.0
10/06:00pm 26.6 24.4 16.8 55 6.2 ENE 24 32 13 17 1012.8 1010.2 0.0
10/05:30pm 27.8 27.9 16.4 50 7.2 SE 11 24 6 13 1012.8 1010.2 0.0
10/05:00pm 30.5 29.0 10.5 29 11.7 W 9 17 5 9 1012.9 1010.3 0.0
10/04:30pm 30.4 29.0 10.9 30 11.5 WNW 9 17 5 9 1012.9 1010.3 0.0
10/04:00pm 30.0 28.7 10.0 29 11.6 W 7 13 4 7 1013.2 1010.6 0.0
10/03:30pm 30.0 27.0 10.5 30 11.4 NW 17 30 9 16 1013.4 1010.9 0.0
10/03:00pm 29.9 26.9 10.5 30 11.4 WSW 17 26 9 14 1013.8 1011.2 0.0
10/02:30pm 29.5 27.4 9.6 29 11.5 WSW 11 19 6 10 1014.2 1011.6 0.0
10/02:00pm 28.9 27.3 12.8 37 9.7 NNW 13 26 7 14 1014.4 1011.8 0.0
10/01:30pm 27.9 25.7 13.4 40 8.8 NNW 17 22 9 12 1015.0 1012.5 0.0

Other Formats:

Comma delimited format used in spreadsheet applications
http://www.bom.gov.au/fwo/IDN60801/IDN60801.94943.axf

JavaScript Object Notation format (JSON) in row-major order
http://www.bom.gov.au/fwo/IDN60801/IDN60801.94943.json